Armony — 5IM517 — position and weather

sailwx.info

Track history (hours):
 
Tides and Currents Weather Stations Pressure Air Temp Water Temp Dewpoint Dewpoint Depression Visibility Wind Speed Wind Dir Waves Ship Positions

Armony

Last reported at 2016-Jul-28 15:33 UTC. Time now 2016-Jul-31 09:30 UTC.
Position N 34°31' E 031°47'.

Length 70 m; draft 3.2 m.

Type: Ship. MMSI: 677041700.

Date/timePositionNaut miles runAvg speedWind from/ knotsBaromVisibWave heightAir tempDewpointWater temp
2016-Jul-28 15:33N 34°31' E 031°47'7 6.9
2016-Jul-28 14:33N 34°24' E 031°44'7 7.0
2016-Jul-28 13:33N 34°18' E 031°40'7 7.1
2016-Jul-28 12:33N 34°12' E 031°36'7 7.4
2016-Jul-28 11:33N 34°05' E 031°32'8 8.1
2016-Jul-28 10:33N 33°58' E 031°28'9 8.1
2016-Jul-28 09:29N 33°50' E 031°23'8 8.1
2016-Jul-28 08:33N 33°43' E 031°20'8 8.0
2016-Jul-28 07:33N 33°35' E 031°17'17 7.5
2016-Jul-28 05:17N 33°19' E 031°12'5 7.3
2016-Jul-28 04:33N 33°14' E 031°09'36 7.0
2016-Jul-27 23:29N 32°42' E 030°51'15 6.9
2016-Jul-27 21:20N 32°31' E 030°39'7 7.5
2016-Jul-27 20:26N 32°28' E 030°32'7 7.5
2016-Jul-27 19:32N 32°26' E 030°24'6 6.2
2016-Jul-27 18:33N 32°21' E 030°20'19 6.3
2016-Jul-27 15:31N 32°02' E 030°15'  
Track history (hours):
 
Tides and Currents Weather Stations Pressure Air Temp Water Temp Dewpoint Dewpoint Depression Visibility Wind Speed Wind Dir Waves Ship Positions

Armony

Last reported at 2016-Jul-28 15:33 UTC. Time now 2016-Jul-31 09:30 UTC.
Position N 34°31' E 031°47'.

Length 70 m; draft 3.2 m.

Type: Ship. MMSI: 677041700.

Date/timePositionNaut miles runAvg speedWind from/ knotsBaromVisibWave heightAir tempDewpointWater temp
2016-Jul-28 15:33N 34°31' E 031°47'7 6.9
2016-Jul-28 14:33N 34°24' E 031°44'7 7.0
2016-Jul-28 13:33N 34°18' E 031°40'7 7.1
2016-Jul-28 12:33N 34°12' E 031°36'7 7.4
2016-Jul-28 11:33N 34°05' E 031°32'8 8.1
2016-Jul-28 10:33N 33°58' E 031°28'9 8.1
2016-Jul-28 09:29N 33°50' E 031°23'8 8.1
2016-Jul-28 08:33N 33°43' E 031°20'8 8.0
2016-Jul-28 07:33N 33°35' E 031°17'17 7.5
2016-Jul-28 05:17N 33°19' E 031°12'5 7.3
2016-Jul-28 04:33N 33°14' E 031°09'36 7.0
2016-Jul-27 23:29N 32°42' E 030°51'15 6.9
2016-Jul-27 21:20N 32°31' E 030°39'7 7.5
2016-Jul-27 20:26N 32°28' E 030°32'7 7.5
2016-Jul-27 19:32N 32°26' E 030°24'6 6.2
2016-Jul-27 18:33N 32°21' E 030°20'19 6.3
2016-Jul-27 15:31N 32°02' E 030°15'  

Dump ship's entire track history